createdAt,value
2022-12-24T00:01:06.039Z,1.38
2022-12-24T00:03:33.808Z,1.20
2022-12-24T00:06:05.577Z,1.55
2022-12-24T00:08:32.191Z,1.48
2022-12-24T00:10:58.850Z,1.52
2022-12-24T00:13:25.674Z,1.20
2022-12-24T00:15:52.359Z,2.00
2022-12-24T00:18:19.098Z,1.50
2022-12-24T00:20:48.277Z,1.30
2022-12-24T00:23:15.859Z,1.40
2022-12-24T00:25:42.522Z,1.23
2022-12-24T00:28:09.170Z,1.23
2022-12-24T00:30:39.104Z,1.67
2022-12-24T00:33:06.361Z,1.75
2022-12-24T00:35:37.712Z,1.15
2022-12-24T00:38:04.897Z,1.83
2022-12-24T00:40:31.916Z,1.48
2022-12-24T00:42:59.013Z,0.88
2022-12-24T00:45:27.791Z,1.52
2022-12-24T00:47:54.431Z,1.63
2022-12-24T00:50:21.063Z,1.23
2022-12-24T00:52:48.760Z,1.17
2022-12-24T00:55:15.460Z,1.48
2022-12-24T00:57:42.115Z,1.30
2022-12-24T01:00:11.148Z,1.85
2022-12-24T01:02:38.049Z,1.10
2022-12-24T01:05:11.424Z,1.25
2022-12-24T01:07:40.969Z,1.15
2022-12-24T01:10:08.520Z,1.67
2022-12-24T01:12:35.650Z,1.17
2022-12-24T01:15:02.482Z,1.25
2022-12-24T01:17:30.882Z,1.10
2022-12-24T01:19:57.557Z,1.20
2022-12-24T01:22:24.227Z,1.25
2022-12-24T01:24:50.937Z,1.25
2022-12-24T01:27:17.731Z,1.33
2022-12-24T01:29:44.532Z,1.40
2022-12-24T01:32:11.173Z,2.17
2022-12-24T01:34:37.822Z,1.48
2022-12-24T01:37:04.585Z,1.40
2022-12-24T01:39:31.449Z,1.55
2022-12-24T01:42:30.502Z,1.63
2022-12-24T01:45:17.064Z,1.50
2022-12-24T01:47:43.839Z,1.52
2022-12-24T01:50:17.682Z,1.95
2022-12-24T01:52:44.476Z,2.08
2022-12-24T01:55:15.915Z,2.03
2022-12-24T01:57:56.578Z,1.40
2022-12-24T02:00:23.508Z,1.88
2022-12-24T02:02:53.071Z,1.58
2022-12-24T02:05:26.535Z,2.08
2022-12-24T02:07:53.489Z,1.58
2022-12-24T02:10:20.355Z,1.73
2022-12-24T02:12:47.583Z,2.13
2022-12-24T02:15:20.101Z,1.73
2022-12-24T02:18:06.925Z,1.50
2022-12-24T02:20:51.647Z,1.60
2022-12-24T02:23:51.941Z,1.63
2022-12-24T02:26:28.037Z,1.52
2022-12-24T02:29:31.974Z,1.98
2022-12-24T02:32:20.495Z,1.85
2022-12-24T02:35:01.146Z,1.92
2022-12-24T02:37:37.878Z,1.33
2022-12-24T02:40:25.571Z,1.58
2022-12-24T02:42:58.491Z,1.85
2022-12-24T02:45:33.498Z,1.45
2022-12-24T02:48:01.191Z,2.15
2022-12-24T02:50:28.454Z,2.03
2022-12-24T02:52:55.135Z,1.58
2022-12-24T02:55:39.110Z,2.15
2022-12-24T02:58:36.940Z,1.70
2022-12-24T03:01:44.289Z,1.85
2022-12-24T03:04:20.065Z,1.60
2022-12-24T03:06:52.697Z,1.73
2022-12-24T03:09:33.257Z,1.70
2022-12-24T03:12:06.170Z,2.00
2022-12-24T03:14:34.792Z,2.38
2022-12-24T03:17:03.446Z,1.42
2022-12-24T03:19:31.285Z,2.08
2022-12-24T03:22:02.045Z,1.65
2022-12-24T03:24:28.717Z,1.88
2022-12-24T03:26:55.699Z,1.95
2022-12-24T03:29:22.384Z,1.88
2022-12-24T03:31:52.267Z,2.38
2022-12-24T03:34:20.028Z,1.85
2022-12-24T03:36:48.274Z,2.05
2022-12-24T03:39:14.947Z,1.70
2022-12-24T03:41:41.585Z,2.25
2022-12-24T03:44:08.215Z,2.33
2022-12-24T03:46:34.963Z,2.13
2022-12-24T03:49:01.682Z,2.45
2022-12-24T03:51:28.610Z,2.65
2022-12-24T03:53:56.587Z,2.22
2022-12-24T03:56:24.466Z,2.30
2022-12-24T03:58:51.420Z,2.17
2022-12-24T04:01:18.800Z,2.20
2022-12-24T04:03:45.838Z,3.10
2022-12-24T04:06:14.993Z,2.88
2022-12-24T04:08:42.187Z,3.50
2022-12-24T04:11:11.858Z,2.22
2022-12-24T04:13:38.615Z,3.60
2022-12-24T04:16:16.270Z,2.53
2022-12-24T04:18:43.841Z,2.60
2022-12-24T04:21:11.358Z,2.67
2022-12-24T04:23:39.492Z,2.65
2022-12-24T04:26:08.119Z,2.28
2022-12-24T04:28:35.518Z,2.15
2022-12-24T04:31:04.799Z,2.72
2022-12-24T04:33:31.465Z,3.10
2022-12-24T04:35:59.137Z,3.03
2022-12-24T04:38:26.180Z,3.47
2022-12-24T04:41:15.981Z,2.67
2022-12-24T04:43:48.071Z,2.97
2022-12-24T04:46:18.549Z,2.95
2022-12-24T04:48:47.079Z,2.80
2022-12-24T04:51:15.054Z,2.38
2022-12-24T04:53:42.875Z,3.20
2022-12-24T04:56:13.214Z,2.50
2022-12-24T05:01:08.534Z,2.20
2022-12-24T05:03:35.434Z,2.45
2022-12-24T05:06:08.404Z,2.47
2022-12-24T05:08:35.383Z,2.33
2022-12-24T05:11:03.319Z,2.05
2022-12-24T05:13:37.904Z,2.13
2022-12-24T05:16:09.815Z,2.15
2022-12-24T05:18:36.698Z,2.25
2022-12-24T05:21:07.368Z,2.20
2022-12-24T05:23:52.664Z,2.30
2022-12-24T05:26:25.638Z,1.90
2022-12-24T05:28:55.249Z,2.20
2022-12-24T05:31:24.431Z,2.53
2022-12-24T05:33:51.487Z,1.73
2022-12-24T05:36:18.156Z,3.42
2022-12-24T05:38:44.931Z,2.63
2022-12-24T05:41:11.719Z,2.42
2022-12-24T05:43:39.062Z,2.45
2022-12-24T05:46:08.555Z,2.15
2022-12-24T05:48:35.841Z,2.40
2022-12-24T05:51:08.096Z,2.10
2022-12-24T05:53:36.279Z,2.20
2022-12-24T05:56:08.276Z,2.35
2022-12-24T05:58:35.198Z,2.45
2022-12-24T06:01:03.550Z,2.42
2022-12-24T06:03:31.167Z,2.15
2022-12-24T06:05:59.874Z,2.42
2022-12-24T06:08:27.804Z,2.13
2022-12-24T06:10:56.394Z,2.63
2022-12-24T06:13:23.185Z,2.03
2022-12-24T06:15:50.031Z,2.38
2022-12-24T06:18:16.876Z,2.42
2022-12-24T06:20:43.519Z,2.15
2022-12-24T06:23:10.215Z,2.03
2022-12-24T06:25:36.810Z,2.10
2022-12-24T06:28:03.854Z,2.45
2022-12-24T06:30:30.458Z,2.53
2022-12-24T06:32:57.073Z,1.75
2022-12-24T06:35:23.714Z,1.77
2022-12-24T06:37:50.387Z,2.08
2022-12-24T06:40:17.019Z,2.05
2022-12-24T06:42:43.726Z,2.47
2022-12-24T06:45:10.788Z,2.17
2022-12-24T06:47:37.415Z,2.20
2022-12-24T06:50:04.482Z,2.60
2022-12-24T06:52:31.113Z,1.90
2022-12-24T06:54:57.760Z,2.75
2022-12-24T06:57:24.385Z,1.77
2022-12-24T06:59:51.057Z,2.05
2022-12-24T07:02:17.848Z,1.90
2022-12-24T07:04:44.517Z,2.50
2022-12-24T07:07:11.138Z,2.22
2022-12-24T07:09:37.806Z,2.45
2022-12-24T07:12:04.847Z,2.65
2022-12-24T07:14:32.399Z,3.15
2022-12-24T07:16:59.602Z,3.10
2022-12-24T07:19:26.524Z,2.95
2022-12-24T07:21:53.121Z,2.63
2022-12-24T07:24:20.529Z,2.38
2022-12-24T07:26:47.321Z,2.95
2022-12-24T07:29:14.081Z,2.20
2022-12-24T07:31:40.899Z,2.80
2022-12-24T07:34:07.655Z,2.45
2022-12-24T07:36:34.334Z,2.85
2022-12-24T07:39:00.949Z,2.58
2022-12-24T07:41:27.608Z,2.83
2022-12-24T07:43:54.255Z,1.92
2022-12-24T07:46:21.759Z,2.45
2022-12-24T07:48:48.541Z,2.95
2022-12-24T07:51:15.173Z,2.90
2022-12-24T07:53:47.636Z,2.40
2022-12-24T07:56:17.209Z,2.85
2022-12-24T07:58:43.909Z,3.53
2022-12-24T08:01:10.793Z,2.47
2022-12-24T08:03:38.606Z,2.20
2022-12-24T08:06:05.715Z,2.55
2022-12-24T08:08:32.333Z,2.60
2022-12-24T08:11:03.846Z,2.10
2022-12-24T08:13:30.787Z,2.60
2022-12-24T08:15:57.498Z,2.55
2022-12-24T08:18:24.567Z,2.10
2022-12-24T08:20:51.832Z,2.08
2022-12-24T08:23:18.766Z,2.03
2022-12-24T08:25:47.449Z,2.50
2022-12-24T08:28:16.515Z,2.15
2022-12-24T08:30:43.789Z,1.73
2022-12-24T08:33:10.926Z,1.80
2022-12-24T08:35:37.645Z,1.70
2022-12-24T08:38:04.387Z,2.50
2022-12-24T08:40:31.023Z,2.47
2022-12-24T08:42:57.936Z,1.92
2022-12-24T08:45:24.739Z,1.58
2022-12-24T08:47:51.387Z,2.05
2022-12-24T08:50:18.057Z,1.98
2022-12-24T08:52:44.705Z,2.38
2022-12-24T08:55:11.491Z,1.80
2022-12-24T08:57:38.216Z,1.98
2022-12-24T09:00:07.766Z,1.60
2022-12-24T09:02:34.626Z,1.40
2022-12-24T09:05:01.368Z,1.25
2022-12-24T09:07:28.009Z,1.23
2022-12-24T09:09:54.638Z,1.95
2022-12-24T09:12:21.348Z,1.02
2022-12-24T09:14:48.008Z,1.10
2022-12-24T09:17:14.627Z,1.10
2022-12-24T09:19:41.237Z,1.45
2022-12-24T09:22:08.125Z,1.17
2022-12-24T09:24:36.301Z,1.30
2022-12-24T09:27:03.954Z,1.50
2022-12-24T09:29:31.474Z,1.20
2022-12-24T09:31:58.659Z,1.02
2022-12-24T09:34:30.412Z,1.05
2022-12-24T09:36:57.553Z,1.00
2022-12-24T09:39:24.215Z,1.30
2022-12-24T09:42:26.170Z,1.15
2022-12-24T09:45:00.896Z,0.90
2022-12-24T09:48:16.871Z,1.00
2022-12-24T09:50:51.556Z,0.60
2022-12-24T09:53:48.175Z,0.93
2022-12-24T09:56:20.462Z,0.80
2022-12-24T09:59:04.328Z,1.10
2022-12-24T10:01:32.743Z,1.30
2022-12-24T10:04:04.099Z,0.98
2022-12-24T10:07:03.275Z,0.90
2022-12-24T10:09:48.022Z,0.93
2022-12-24T10:12:19.318Z,0.70
2022-12-24T10:15:10.278Z,0.98
2022-12-24T10:18:03.605Z,0.93
2022-12-24T10:20:47.327Z,1.35
2022-12-24T10:23:47.958Z,1.30
2022-12-24T10:26:30.467Z,0.80
2022-12-24T10:29:01.843Z,1.02
2022-12-24T10:31:38.038Z,0.98
2022-12-24T10:34:16.607Z,0.68
2022-12-24T10:36:43.238Z,0.80
2022-12-24T10:39:18.592Z,0.98
2022-12-24T10:41:48.437Z,0.80
2022-12-24T10:44:17.786Z,0.93
2022-12-24T10:46:45.746Z,0.75
2022-12-24T10:49:16.349Z,0.90
2022-12-24T10:51:51.042Z,0.68
2022-12-24T10:54:26.554Z,0.70
2022-12-24T10:56:59.892Z,1.10
2022-12-24T10:59:33.736Z,1.25
2022-12-24T11:02:01.398Z,0.88
2022-12-24T11:04:30.947Z,0.93
2022-12-24T11:07:02.413Z,1.10
2022-12-24T11:09:31.001Z,0.98
2022-12-24T11:12:03.742Z,1.10
2022-12-24T11:14:37.391Z,0.68
2022-12-24T11:17:04.978Z,0.77
2022-12-24T11:19:34.756Z,1.10
2022-12-24T11:22:04.911Z,0.85
2022-12-24T11:24:35.413Z,0.90
2022-12-24T11:27:41.034Z,14.95
2022-12-24T11:30:16.693Z,8.45
2022-12-24T11:32:45.652Z,5.70
2022-12-24T11:35:21.732Z,3.70
2022-12-24T11:38:00.326Z,2.45
2022-12-24T11:40:44.921Z,1.55
2022-12-24T11:43:45.519Z,1.33
2022-12-24T11:46:22.592Z,1.45
2022-12-24T11:49:16.315Z,1.10
2022-12-24T11:52:10.820Z,1.15
2022-12-24T11:54:55.931Z,1.15
2022-12-24T11:57:27.629Z,1.75
2022-12-24T11:59:54.323Z,0.90
2022-12-24T12:02:38.046Z,0.80
2022-12-24T12:05:12.026Z,1.33
2022-12-24T12:07:39.288Z,1.10
2022-12-24T12:10:20.639Z,1.23
2022-12-24T12:12:58.039Z,1.20
2022-12-24T12:15:28.582Z,1.05
2022-12-24T12:18:06.821Z,1.20
2022-12-24T12:20:40.432Z,1.10
2022-12-24T12:23:15.713Z,1.02
2022-12-24T12:26:12.451Z,1.10
2022-12-24T12:28:55.441Z,1.08
2022-12-24T12:31:42.491Z,1.33
2022-12-24T12:34:38.727Z,2.70
2022-12-24T12:37:33.786Z,1.75
2022-12-24T12:40:00.655Z,1.30
2022-12-24T12:42:34.919Z,2.30
2022-12-24T12:45:23.110Z,1.77
2022-12-24T12:48:21.158Z,1.00
2022-12-24T12:51:02.657Z,1.40
2022-12-24T12:53:56.436Z,1.67
2022-12-24T12:56:37.211Z,1.27
2022-12-24T12:59:11.625Z,1.45
2022-12-24T13:01:59.630Z,1.27
2022-12-24T13:05:27.238Z,1.30
2022-12-24T13:08:15.343Z,1.02
2022-12-24T13:10:57.068Z,1.17
2022-12-24T13:13:32.605Z,1.30
2022-12-24T13:16:37.190Z,1.33
2022-12-24T13:19:09.825Z,1.10
2022-12-24T13:21:36.653Z,1.10
2022-12-24T13:24:19.765Z,1.70
2022-12-24T13:27:14.950Z,1.10
2022-12-24T13:29:43.465Z,0.98
2022-12-24T13:32:22.222Z,1.20
2022-12-24T13:34:50.336Z,1.23
2022-12-24T13:37:21.530Z,1.27
2022-12-24T13:40:06.437Z,0.70
2022-12-24T13:42:51.183Z,0.90
2022-12-24T13:45:30.270Z,0.95
2022-12-24T13:48:06.101Z,1.42
2022-12-24T13:50:50.130Z,0.90
2022-12-24T13:53:57.666Z,1.30
2022-12-24T13:56:29.578Z,1.30
2022-12-24T13:59:12.561Z,1.00
2022-12-24T14:01:43.274Z,1.60
2022-12-24T14:04:21.506Z,1.63
2022-12-24T14:06:50.493Z,1.60
2022-12-24T14:09:21.547Z,1.70
2022-12-24T14:11:55.964Z,1.80
2022-12-24T14:14:41.177Z,1.67
2022-12-24T14:17:24.806Z,1.65
2022-12-24T14:19:55.053Z,2.45
2022-12-24T14:22:39.018Z,1.20
2022-12-24T14:25:22.707Z,0.95
2022-12-24T14:28:11.764Z,1.15
2022-12-24T14:30:38.394Z,1.30
2022-12-24T14:33:05.230Z,1.27
2022-12-24T14:35:37.941Z,1.27
2022-12-24T14:38:14.582Z,1.00
2022-12-24T14:41:05.604Z,2.97
2022-12-24T14:44:08.634Z,1.20
2022-12-24T14:46:48.471Z,1.42
2022-12-24T14:49:53.495Z,0.90
2022-12-24T14:55:48.468Z,1.60
2022-12-24T14:58:21.944Z,1.55
2022-12-24T15:00:49.311Z,1.80
2022-12-24T15:03:20.936Z,1.38
2022-12-24T15:05:52.785Z,1.02
2022-12-24T15:08:37.909Z,1.20
2022-12-24T15:11:08.708Z,1.40
2022-12-24T15:13:46.044Z,1.17
2022-12-24T15:16:18.592Z,1.30
2022-12-24T15:18:50.478Z,1.80
2022-12-24T15:21:25.667Z,1.23
2022-12-24T15:23:52.737Z,0.98
2022-12-24T15:26:24.109Z,1.33
2022-12-24T15:28:53.921Z,1.20
2022-12-24T15:31:25.645Z,1.50
2022-12-24T15:33:55.793Z,1.80
2022-12-24T15:36:37.046Z,1.30
2022-12-24T15:39:13.718Z,1.00
2022-12-24T15:42:01.547Z,0.93
2022-12-24T15:44:39.213Z,1.17
2022-12-24T15:47:08.647Z,1.20
2022-12-24T15:49:36.393Z,1.40
2022-12-24T15:52:10.663Z,1.00
2022-12-24T15:54:37.409Z,1.42
2022-12-24T15:57:24.388Z,1.50
2022-12-24T15:59:55.936Z,1.13
2022-12-24T16:02:34.094Z,0.95
2022-12-24T16:05:30.775Z,1.00
2022-12-24T16:08:08.450Z,1.30
2022-12-24T16:10:44.501Z,1.35
2022-12-24T16:13:18.900Z,1.30
2022-12-24T16:15:49.651Z,1.90
2022-12-24T16:18:25.649Z,1.10
2022-12-24T16:20:53.884Z,1.02
2022-12-24T16:23:23.529Z,0.82
2022-12-24T16:25:50.532Z,1.02
2022-12-24T16:28:22.161Z,0.88
2022-12-24T16:30:50.230Z,1.05
2022-12-24T16:33:19.020Z,0.85
2022-12-24T16:35:46.639Z,1.45
2022-12-24T16:38:13.823Z,1.27
2022-12-24T16:40:42.176Z,2.70
2022-12-24T16:43:28.827Z,2.78
2022-12-24T16:46:02.334Z,2.55
2022-12-24T16:48:29.990Z,2.00
2022-12-24T16:50:57.042Z,1.88
2022-12-24T16:53:24.127Z,1.70
2022-12-24T16:55:51.780Z,1.52
2022-12-24T16:58:19.357Z,1.20
2022-12-24T17:00:46.529Z,1.40
2022-12-24T17:03:13.522Z,1.13
2022-12-24T17:05:42.020Z,1.08
2022-12-24T17:08:09.361Z,1.40
2022-12-24T17:10:36.647Z,1.88
2022-12-24T17:13:03.482Z,1.73
2022-12-24T17:15:30.203Z,1.08
2022-12-24T17:17:56.959Z,1.42
2022-12-24T17:20:24.407Z,1.20
2022-12-24T17:22:52.028Z,1.13
2022-12-24T17:25:18.887Z,1.98
2022-12-24T17:27:45.632Z,1.95
2022-12-24T17:30:12.588Z,1.25
2022-12-24T17:32:39.692Z,1.20
2022-12-24T17:35:07.556Z,2.80
2022-12-24T17:37:34.285Z,2.55
2022-12-24T17:40:01.001Z,2.13
2022-12-24T17:42:27.700Z,2.60
2022-12-24T17:44:54.316Z,1.88
2022-12-24T17:47:20.982Z,2.38
2022-12-24T17:49:47.638Z,3.28
2022-12-24T17:52:14.290Z,2.03
2022-12-24T17:54:40.891Z,2.10
2022-12-24T17:57:07.562Z,1.48
2022-12-24T17:59:34.268Z,2.00
2022-12-24T18:02:01.019Z,1.65
2022-12-24T18:04:27.732Z,2.25
2022-12-24T18:07:01.780Z,1.80
2022-12-24T18:09:29.184Z,1.73
2022-12-24T18:11:55.875Z,1.60
2022-12-24T18:14:22.605Z,1.45
2022-12-24T18:16:49.741Z,1.67
2022-12-24T18:19:16.538Z,1.73
2022-12-24T18:21:43.332Z,1.98
2022-12-24T18:24:11.846Z,1.88
2022-12-24T18:26:38.954Z,1.65
2022-12-24T18:29:08.558Z,1.60
2022-12-24T18:31:36.051Z,1.40
2022-12-24T18:34:04.807Z,1.92
2022-12-24T18:36:31.503Z,1.52
2022-12-24T18:38:58.236Z,2.17
2022-12-24T18:41:27.266Z,2.22
2022-12-24T18:43:54.882Z,2.35
2022-12-24T18:46:27.475Z,2.25
2022-12-24T18:48:55.393Z,2.53
2022-12-24T18:51:24.008Z,3.00
2022-12-24T18:53:50.956Z,3.30
2022-12-24T18:56:23.501Z,2.78
2022-12-24T18:58:54.265Z,2.75
2022-12-24T19:01:24.089Z,1.73
2022-12-24T19:03:51.698Z,1.60
2022-12-24T19:06:19.724Z,2.00
2022-12-24T19:08:56.929Z,2.25
2022-12-24T19:11:24.381Z,2.97
2022-12-24T19:13:52.875Z,2.70
2022-12-24T19:16:19.903Z,2.53
2022-12-24T19:18:46.750Z,2.20
2022-12-24T19:21:15.182Z,2.00
2022-12-24T19:23:41.959Z,2.38
2022-12-24T19:26:10.990Z,2.20
2022-12-24T19:28:38.062Z,3.13
2022-12-24T19:31:07.141Z,2.80
2022-12-24T19:33:43.398Z,1.77
2022-12-24T19:36:19.154Z,2.28
2022-12-24T19:38:46.007Z,2.03
2022-12-24T19:41:18.577Z,2.63
2022-12-24T19:43:47.765Z,3.00
2022-12-24T19:46:17.385Z,2.72
2022-12-24T19:48:48.263Z,2.58
2022-12-24T19:51:14.905Z,2.83
2022-12-24T19:53:41.548Z,2.40
2022-12-24T19:56:08.735Z,2.40
2022-12-24T19:58:36.188Z,3.55
2022-12-24T20:01:16.246Z,3.10
2022-12-24T20:03:45.081Z,3.80
2022-12-24T20:06:12.876Z,4.03
2022-12-24T20:08:40.521Z,4.00
2022-12-24T20:11:20.808Z,4.22
2022-12-24T20:13:47.514Z,4.75
2022-12-24T20:16:16.859Z,4.80
2022-12-24T20:18:44.181Z,11.33
2022-12-24T20:21:12.347Z,7.07
2022-12-24T20:23:40.364Z,6.72
2022-12-24T20:26:10.672Z,5.43
2022-12-24T20:31:18.641Z,4.20
2022-12-24T20:33:46.286Z,2.47
2022-12-24T20:36:18.275Z,2.40
2022-12-24T20:38:45.471Z,2.20
2022-12-24T20:41:14.002Z,2.72
2022-12-24T20:43:47.458Z,2.83
2022-12-24T20:46:20.212Z,3.40
2022-12-24T20:48:47.059Z,2.80
2022-12-24T20:51:23.374Z,2.47
2022-12-24T20:53:52.888Z,4.38
2022-12-24T20:56:19.728Z,3.08
2022-12-24T20:58:46.655Z,2.22
2022-12-24T21:01:19.612Z,2.33
2022-12-24T21:03:47.140Z,2.60
2022-12-24T21:06:15.571Z,2.33
2022-12-24T21:08:42.711Z,2.35
2022-12-24T21:11:32.617Z,5.35
2022-12-24T21:14:01.964Z,4.20
2022-12-24T21:16:30.656Z,4.78
2022-12-24T21:18:57.584Z,5.43
2022-12-24T21:21:24.316Z,6.15
2022-12-24T21:23:51.018Z,4.65
2022-12-24T21:26:17.661Z,3.63
2022-12-24T21:28:45.472Z,3.28
2022-12-24T21:31:14.173Z,3.30
2022-12-24T21:33:41.683Z,2.47
2022-12-24T21:36:10.023Z,1.92
2022-12-24T21:38:36.761Z,1.70
2022-12-24T21:41:12.764Z,2.15
2022-12-24T21:43:39.782Z,1.80
2022-12-24T21:46:11.795Z,1.85
2022-12-24T21:48:57.280Z,1.60
2022-12-24T21:51:26.534Z,1.77
2022-12-24T21:54:12.849Z,2.30
2022-12-24T21:56:58.299Z,2.45
2022-12-24T21:59:27.157Z,4.10
2022-12-24T22:01:54.612Z,4.28
2022-12-24T22:04:21.423Z,6.03
2022-12-24T22:07:06.575Z,6.60
2022-12-24T22:09:52.139Z,5.75
2022-12-24T22:12:18.873Z,5.45
2022-12-24T22:14:45.664Z,6.00
2022-12-24T22:17:12.381Z,3.92
2022-12-24T22:19:39.070Z,4.03
2022-12-24T22:22:05.713Z,3.47
2022-12-24T22:24:32.437Z,4.15
2022-12-24T22:26:59.118Z,4.68
2022-12-24T22:29:25.798Z,4.07
2022-12-24T22:31:52.451Z,3.53
2022-12-24T22:34:19.222Z,3.30
2022-12-24T22:36:45.824Z,3.70
2022-12-24T22:39:12.481Z,3.78
2022-12-24T22:41:39.170Z,3.97
2022-12-24T22:44:05.848Z,3.72
2022-12-24T22:46:32.689Z,3.35
2022-12-24T22:48:59.364Z,3.25
2022-12-24T22:51:25.970Z,3.63
2022-12-24T22:53:52.629Z,3.35
2022-12-24T22:56:22.471Z,3.63
2022-12-24T22:58:56.217Z,3.95
2022-12-24T23:01:36.851Z,3.10
2022-12-24T23:04:05.980Z,3.28
2022-12-24T23:06:33.763Z,2.92
2022-12-24T23:09:00.720Z,3.10
2022-12-24T23:11:27.549Z,3.00
2022-12-24T23:14:12.653Z,2.60
2022-12-24T23:16:39.306Z,3.03
2022-12-24T23:19:06.665Z,3.13
2022-12-24T23:21:33.976Z,3.08
2022-12-24T23:24:01.985Z,3.33
2022-12-24T23:26:29.133Z,2.95
2022-12-24T23:28:56.624Z,3.03
2022-12-24T23:31:24.120Z,3.28
2022-12-24T23:33:50.855Z,3.10
2022-12-24T23:36:17.812Z,3.08
2022-12-24T23:38:44.649Z,3.42
2022-12-24T23:41:11.718Z,2.30
2022-12-24T23:43:39.257Z,3.35
2022-12-24T23:46:06.164Z,3.70
2022-12-24T23:48:32.873Z,3.83
2022-12-24T23:51:11.888Z,3.50
2022-12-24T23:53:38.809Z,3.00
2022-12-24T23:56:06.727Z,3.97
2022-12-24T23:58:33.540Z,3.28
